createdAt,value
2022-11-05T00:00:38.393Z,133.00
2022-11-05T00:03:24.243Z,128.30
2022-11-05T00:06:11.159Z,140.60
2022-11-05T00:09:08.227Z,133.80
2022-11-05T00:11:54.093Z,132.50
2022-11-05T00:14:40.189Z,130.90
2022-11-05T00:17:07.449Z,119.10
2022-11-05T00:19:34.596Z,132.80
2022-11-05T00:22:20.370Z,126.80
2022-11-05T00:25:06.167Z,125.30
2022-11-05T00:27:34.432Z,113.40
2022-11-05T00:30:04.963Z,120.60
2022-11-05T00:32:33.053Z,108.20
2022-11-05T00:35:00.181Z,112.40
2022-11-05T00:37:28.160Z,116.00
2022-11-05T00:39:55.198Z,112.50
2022-11-05T00:42:41.087Z,112.60
2022-11-05T00:45:08.953Z,128.60
2022-11-05T00:47:54.842Z,114.80
2022-11-05T00:50:22.312Z,114.70
2022-11-05T00:52:56.240Z,112.60
2022-11-05T00:55:29.942Z,114.00
2022-11-05T00:57:57.470Z,115.70
2022-11-05T01:00:25.349Z,108.30
2022-11-05T01:02:52.542Z,108.80
2022-11-05T01:05:20.048Z,108.10
2022-11-05T01:07:47.193Z,107.90
2022-11-05T01:10:14.143Z,105.70
2022-11-05T01:12:41.187Z,103.10
2022-11-05T01:15:09.404Z,105.60
2022-11-05T01:17:36.405Z,106.40
2022-11-05T01:20:03.860Z,105.00
2022-11-05T01:22:30.732Z,102.80
2022-11-05T01:24:57.753Z,101.10
2022-11-05T01:27:24.928Z,97.90
2022-11-05T01:29:51.830Z,110.40
2022-11-05T01:32:18.829Z,103.90
2022-11-05T01:34:45.733Z,93.30
2022-11-05T01:37:13.930Z,87.50
2022-11-05T01:39:40.954Z,98.80
2022-11-05T01:42:15.970Z,97.70
2022-11-05T01:45:03.412Z,104.70
2022-11-05T01:47:59.952Z,101.00
2022-11-05T01:50:49.467Z,103.10
2022-11-05T01:53:51.183Z,99.80
2022-11-05T01:56:23.870Z,92.20
2022-11-05T01:58:53.990Z,95.00
2022-11-05T02:01:21.235Z,94.40
2022-11-05T02:03:49.103Z,107.20
2022-11-05T02:06:16.770Z,95.20
2022-11-05T02:08:55.492Z,93.30
2022-11-05T02:11:22.531Z,89.50
2022-11-05T02:13:49.679Z,97.40
2022-11-05T02:16:39.562Z,98.80
2022-11-05T02:19:41.153Z,99.90
2022-11-05T02:22:33.180Z,95.70
2022-11-05T02:25:15.557Z,94.40
2022-11-05T02:28:15.478Z,94.40
2022-11-05T02:31:15.230Z,99.80
2022-11-05T02:33:44.287Z,97.20
2022-11-05T02:36:35.807Z,105.60
2022-11-05T02:39:27.332Z,99.40
2022-11-05T02:42:19.338Z,100.30
2022-11-05T02:44:54.126Z,98.40
2022-11-05T02:47:39.462Z,92.50
2022-11-05T02:50:12.651Z,92.20
2022-11-05T02:55:40.882Z,88.30
2022-11-05T02:58:08.095Z,91.20
2022-11-05T03:00:51.257Z,100.20
2022-11-05T03:05:59.980Z,93.70
2022-11-05T03:08:58.243Z,103.20
2022-11-05T03:11:27.070Z,92.90
2022-11-05T03:13:56.744Z,93.70
2022-11-05T03:16:37.404Z,89.20
2022-11-05T03:19:13.646Z,100.10
2022-11-05T03:22:02.017Z,86.90
2022-11-05T03:24:34.793Z,91.90
2022-11-05T03:27:07.507Z,86.50
2022-11-05T03:29:39.807Z,88.90
2022-11-05T03:32:06.808Z,82.60
2022-11-05T03:34:37.120Z,84.80
2022-11-05T03:37:04.259Z,95.70
2022-11-05T03:39:37.553Z,80.70
2022-11-05T03:47:40.583Z,88.60
2022-11-05T03:50:40.931Z,88.00
2022-11-05T03:53:14.153Z,81.70
2022-11-05T03:55:59.355Z,80.80
2022-11-05T03:58:26.474Z,76.00
2022-11-05T04:00:53.447Z,79.50
2022-11-05T04:03:20.464Z,71.90
2022-11-05T04:06:07.582Z,79.70
2022-11-05T04:08:53.373Z,79.20
2022-11-05T04:11:39.183Z,78.90
2022-11-05T04:14:06.202Z,82.00
2022-11-05T04:16:51.885Z,88.50
2022-11-05T04:19:38.812Z,81.30
2022-11-05T04:22:24.595Z,88.60
2022-11-05T04:24:51.644Z,83.80
2022-11-05T04:27:18.786Z,84.70
2022-11-05T04:30:04.774Z,90.00
2022-11-05T04:32:31.732Z,86.10
2022-11-05T04:34:58.775Z,85.80
2022-11-05T04:37:25.919Z,86.60
2022-11-05T04:39:53.275Z,94.50
2022-11-05T04:42:20.320Z,90.60
2022-11-05T04:44:47.367Z,95.50
2022-11-05T04:47:14.310Z,85.50
2022-11-05T04:49:41.257Z,91.20
2022-11-05T04:52:08.300Z,87.80
2022-11-05T04:54:35.585Z,91.00
2022-11-05T04:57:02.496Z,95.60
2022-11-05T04:59:29.568Z,96.20
2022-11-05T05:01:56.735Z,95.80
2022-11-05T05:04:23.944Z,96.50
2022-11-05T05:06:50.912Z,88.90
2022-11-05T05:09:18.179Z,91.30
2022-11-05T05:11:45.611Z,92.30
2022-11-05T05:14:12.888Z,93.40
2022-11-05T05:16:40.507Z,97.90
2022-11-05T05:19:07.591Z,88.30
2022-11-05T05:21:41.266Z,106.00
2022-11-05T05:24:16.202Z,108.80
2022-11-05T05:26:45.194Z,111.30
2022-11-05T05:30:14.797Z,116.40
2022-11-05T05:32:41.888Z,111.90
2022-11-05T05:35:09.815Z,131.20
2022-11-05T05:37:36.964Z,132.30
2022-11-05T05:40:04.216Z,136.70
2022-11-05T05:42:31.262Z,123.50
2022-11-05T05:44:58.245Z,108.80
2022-11-05T05:47:25.372Z,104.00
2022-11-05T05:49:52.513Z,107.80
2022-11-05T05:52:19.447Z,115.20
2022-11-05T05:54:46.395Z,117.00
2022-11-05T05:57:13.437Z,135.90
2022-11-05T05:59:40.382Z,133.20
2022-11-05T06:02:07.434Z,129.50
2022-11-05T06:04:34.913Z,126.40
2022-11-05T06:07:01.910Z,142.00
2022-11-05T06:09:29.202Z,131.40
2022-11-05T06:11:56.230Z,120.00
2022-11-05T06:14:23.542Z,119.10
2022-11-05T06:16:53.295Z,111.90
2022-11-05T06:19:22.722Z,120.00
2022-11-05T06:21:49.850Z,114.50
2022-11-05T06:24:17.024Z,133.40
2022-11-05T06:26:45.316Z,137.50
2022-11-05T06:29:12.318Z,118.90
2022-11-05T06:31:39.473Z,125.60
2022-11-05T06:34:06.512Z,129.20
2022-11-05T06:36:33.868Z,125.30
2022-11-05T06:39:00.957Z,92.60
2022-11-05T06:41:28.069Z,76.40
2022-11-05T06:43:55.116Z,77.40
2022-11-05T06:46:24.625Z,77.00
2022-11-05T06:48:51.778Z,75.70
2022-11-05T06:51:19.220Z,70.50
2022-11-05T06:53:46.171Z,73.10
2022-11-05T06:56:13.216Z,72.40
2022-11-05T06:58:40.161Z,66.50
2022-11-05T07:01:08.857Z,66.80
2022-11-05T07:03:37.059Z,67.60
2022-11-05T07:06:04.608Z,58.70
2022-11-05T07:08:35.408Z,60.10
2022-11-05T07:11:02.455Z,60.10
2022-11-05T07:13:29.396Z,64.70
2022-11-05T07:15:57.000Z,78.10
2022-11-05T07:18:24.211Z,68.70
2022-11-05T07:20:51.160Z,78.10
2022-11-05T07:23:18.205Z,81.30
2022-11-05T07:25:45.355Z,73.90
2022-11-05T07:28:12.365Z,70.10
2022-11-05T07:30:39.321Z,64.30
2022-11-05T07:33:06.225Z,71.20
2022-11-05T07:35:33.245Z,71.60
2022-11-05T07:38:00.093Z,66.20
2022-11-05T07:40:27.990Z,62.10
2022-11-05T07:42:56.557Z,62.70
2022-11-05T07:45:23.705Z,72.60
2022-11-05T07:47:52.229Z,57.60
2022-11-05T07:50:20.693Z,57.20
2022-11-05T07:52:48.753Z,60.90
2022-11-05T07:55:16.060Z,56.50
2022-11-05T07:57:46.619Z,58.90
2022-11-05T08:00:15.387Z,60.90
2022-11-05T08:02:42.834Z,58.00
2022-11-05T08:05:10.072Z,64.10
2022-11-05T08:07:36.970Z,65.80
2022-11-05T08:10:04.423Z,63.80
2022-11-05T08:12:32.060Z,57.40
2022-11-05T08:14:59.033Z,52.00
2022-11-05T08:17:25.939Z,58.90
2022-11-05T08:19:52.866Z,53.80
2022-11-05T08:22:20.029Z,58.10
2022-11-05T08:24:46.971Z,61.60
2022-11-05T08:27:13.964Z,58.30
2022-11-05T08:29:40.971Z,61.20
2022-11-05T08:32:07.874Z,60.70
2022-11-05T08:34:34.687Z,60.40
2022-11-05T08:37:02.112Z,55.00
2022-11-05T08:39:29.145Z,58.20
2022-11-05T08:41:56.068Z,68.90
2022-11-05T08:44:23.027Z,60.90
2022-11-05T08:46:50.116Z,59.80
2022-11-05T08:49:17.002Z,55.00
2022-11-05T08:51:44.716Z,52.70
2022-11-05T08:54:11.690Z,55.00
2022-11-05T08:56:38.699Z,58.00
2022-11-05T08:59:05.627Z,61.50
2022-11-05T09:01:33.579Z,60.60
2022-11-05T09:04:00.496Z,58.40
2022-11-05T09:06:27.354Z,63.00
2022-11-05T09:08:54.280Z,55.20
2022-11-05T09:11:21.275Z,63.50
2022-11-05T09:13:48.134Z,66.50
2022-11-05T09:16:25.475Z,64.80
2022-11-05T09:18:52.591Z,59.10
2022-11-05T09:21:19.605Z,59.80
2022-11-05T09:23:46.858Z,50.40
2022-11-05T09:26:13.831Z,51.60
2022-11-05T09:28:40.866Z,52.70
2022-11-05T09:31:08.639Z,60.80
2022-11-05T09:33:37.050Z,55.00
2022-11-05T09:36:04.569Z,53.70
2022-11-05T09:38:32.371Z,52.90
2022-11-05T09:41:02.391Z,58.10
2022-11-05T09:43:38.548Z,51.90
2022-11-05T09:46:23.460Z,69.10
2022-11-05T09:48:53.887Z,50.80
2022-11-05T09:51:23.876Z,51.60
2022-11-05T09:53:51.612Z,55.50
2022-11-05T09:56:24.250Z,55.30
2022-11-05T09:58:54.656Z,55.60
2022-11-05T10:01:24.478Z,52.40
2022-11-05T10:03:54.073Z,55.90
2022-11-05T10:06:23.073Z,53.30
2022-11-05T10:08:57.660Z,53.90
2022-11-05T10:11:45.983Z,51.70
2022-11-05T10:14:18.882Z,57.90
2022-11-05T10:19:16.620Z,59.90
2022-11-05T10:26:00.869Z,61.70
2022-11-05T10:31:53.930Z,57.20
2022-11-05T10:34:22.042Z,42.80
2022-11-05T10:36:49.047Z,37.80
2022-11-05T10:39:17.840Z,32.50
2022-11-05T10:41:57.577Z,29.90
2022-11-05T10:44:30.563Z,31.80
2022-11-05T10:49:39.739Z,27.80
2022-11-05T10:52:24.988Z,32.20
2022-11-05T10:54:53.895Z,28.80
2022-11-05T10:57:47.407Z,33.30
2022-11-05T11:00:17.095Z,28.60
2022-11-05T11:02:51.071Z,31.70
2022-11-05T11:05:24.043Z,25.50
2022-11-05T11:08:01.703Z,28.90
2022-11-05T11:10:29.120Z,32.30
2022-11-05T11:12:56.514Z,32.70
2022-11-05T11:15:28.722Z,30.90
2022-11-05T11:17:56.350Z,34.80
2022-11-05T11:20:26.291Z,33.30
2022-11-05T11:22:59.370Z,33.50
2022-11-05T11:25:28.280Z,34.70
2022-11-05T11:27:55.169Z,31.60
2022-11-05T11:30:22.143Z,31.10
2022-11-05T11:32:49.108Z,35.40
2022-11-05T11:35:23.684Z,30.20
2022-11-05T11:37:52.829Z,31.70
2022-11-05T11:40:33.610Z,35.40
2022-11-05T11:43:02.850Z,32.40
2022-11-05T11:45:47.047Z,34.40
2022-11-05T11:48:19.407Z,34.10
2022-11-05T11:50:47.443Z,32.90
2022-11-05T11:53:21.558Z,36.90
2022-11-05T11:56:05.242Z,34.00
2022-11-05T11:58:39.518Z,35.20
2022-11-05T12:01:11.761Z,34.90
2022-11-05T12:03:47.716Z,35.40
2022-11-05T12:06:29.188Z,31.70
2022-11-05T12:09:01.992Z,30.20
2022-11-05T12:11:39.970Z,30.80
2022-11-05T12:14:13.179Z,33.40
2022-11-05T12:16:48.044Z,32.50
2022-11-05T12:19:39.692Z,27.50
2022-11-05T12:22:18.988Z,33.70
2022-11-05T12:24:55.659Z,30.10
2022-11-05T12:27:30.138Z,31.50
2022-11-05T12:30:01.948Z,28.30
2022-11-05T12:32:44.365Z,29.30
2022-11-05T12:35:36.321Z,31.70
2022-11-05T12:38:12.841Z,29.50
2022-11-05T12:40:48.943Z,34.50
2022-11-05T12:43:40.836Z,32.60
2022-11-05T12:46:14.007Z,33.70
2022-11-05T12:51:20.764Z,46.80
2022-11-05T12:53:56.407Z,35.40
2022-11-05T12:56:34.692Z,33.90
2022-11-05T12:59:22.428Z,41.80
2022-11-05T13:01:58.134Z,37.70
2022-11-05T13:04:42.045Z,48.10
2022-11-05T13:07:10.508Z,42.80
2022-11-05T13:09:44.970Z,41.40
2022-11-05T13:12:16.156Z,37.80
2022-11-05T13:14:54.643Z,42.70
2022-11-05T13:17:26.340Z,31.80
2022-11-05T13:20:16.039Z,42.20
2022-11-05T13:22:49.823Z,40.80
2022-11-05T13:25:22.055Z,54.10
2022-11-05T13:27:52.058Z,44.20
2022-11-05T13:30:26.689Z,62.40
2022-11-05T13:33:00.433Z,48.90
2022-11-05T13:35:37.830Z,43.20
2022-11-05T13:38:26.675Z,43.30
2022-11-05T13:41:03.986Z,42.10
2022-11-05T13:44:20.103Z,44.90
2022-11-05T13:47:21.161Z,133.30
2022-11-05T13:50:26.652Z,76.10
2022-11-05T13:53:15.194Z,51.70
2022-11-05T13:56:09.673Z,47.40
2022-11-05T13:58:48.676Z,44.70
2022-11-05T14:01:16.037Z,44.70
2022-11-05T14:03:51.046Z,47.60
2022-11-05T14:06:30.073Z,48.20
2022-11-05T14:09:01.278Z,46.60
2022-11-05T14:11:41.986Z,50.00
2022-11-05T14:14:21.388Z,51.40
2022-11-05T14:17:12.897Z,49.10
2022-11-05T14:20:15.682Z,280.90
2022-11-05T14:22:42.834Z,55.70
2022-11-05T14:25:36.244Z,55.80
2022-11-05T14:28:03.395Z,56.10
2022-11-05T14:30:45.972Z,53.50
2022-11-05T14:33:26.621Z,57.20
2022-11-05T14:36:13.311Z,58.40
2022-11-05T14:38:47.043Z,52.40
2022-11-05T14:41:14.026Z,45.00
2022-11-05T14:43:45.494Z,52.60
2022-11-05T14:46:12.629Z,59.10
2022-11-05T14:48:44.595Z,52.40
2022-11-05T14:51:30.526Z,57.10
2022-11-05T14:54:24.317Z,56.50
2022-11-05T14:56:59.332Z,66.50
2022-11-05T14:59:31.699Z,57.80
2022-11-05T15:02:05.365Z,54.80
2022-11-05T15:04:36.654Z,55.10
2022-11-05T15:07:08.525Z,58.50
2022-11-05T15:09:57.315Z,52.60
2022-11-05T15:12:24.969Z,58.50
2022-11-05T15:15:28.163Z,62.90
2022-11-05T15:18:31.614Z,80.00
2022-11-05T15:20:59.490Z,81.60
2022-11-05T15:23:29.517Z,68.30
2022-11-05T15:26:11.812Z,73.40
2022-11-05T15:28:42.704Z,75.80
2022-11-05T15:31:15.217Z,66.70
2022-11-05T15:33:43.328Z,63.00
2022-11-05T15:36:10.949Z,71.90
2022-11-05T15:38:56.662Z,66.40
2022-11-05T15:41:34.710Z,72.20
2022-11-05T15:44:02.880Z,70.70
2022-11-05T15:46:30.007Z,63.70
2022-11-05T15:49:04.420Z,59.50
2022-11-05T15:51:31.367Z,66.10
2022-11-05T15:56:58.071Z,71.90
2022-11-05T15:59:26.139Z,87.50
2022-11-05T16:02:04.023Z,112.50
2022-11-05T16:04:32.622Z,130.10
2022-11-05T16:07:01.909Z,140.30
2022-11-05T16:09:31.305Z,134.80
2022-11-05T16:12:19.982Z,137.80
2022-11-05T16:15:08.315Z,166.00
2022-11-05T16:17:54.693Z,177.50
2022-11-05T16:20:21.900Z,164.90
2022-11-05T16:22:53.806Z,148.70
2022-11-05T16:25:27.559Z,145.30
2022-11-05T16:27:55.795Z,145.80
2022-11-05T16:30:25.341Z,154.60
2022-11-05T16:32:54.652Z,169.80
2022-11-05T16:35:23.592Z,144.70
2022-11-05T16:37:55.207Z,159.90
2022-11-05T16:40:25.174Z,157.40
2022-11-05T16:42:55.446Z,158.80
2022-11-05T16:45:26.321Z,149.30
2022-11-05T16:47:53.671Z,152.40
2022-11-05T16:50:24.053Z,148.30
2022-11-05T16:52:54.427Z,151.80
2022-11-05T16:55:21.410Z,144.50
2022-11-05T16:57:53.679Z,146.40
2022-11-05T17:00:21.086Z,156.60
2022-11-05T17:02:48.380Z,152.80
2022-11-05T17:05:29.217Z,196.70
2022-11-05T17:07:56.578Z,158.30
2022-11-05T17:10:24.769Z,163.90
2022-11-05T17:12:51.690Z,158.20
2022-11-05T17:15:23.649Z,157.70
2022-11-05T17:17:51.178Z,167.60
2022-11-05T17:20:42.074Z,161.30
2022-11-05T17:23:12.597Z,186.30
2022-11-05T17:25:40.452Z,186.70
2022-11-05T17:28:07.610Z,187.80
2022-11-05T17:30:40.280Z,220.00
2022-11-05T17:33:15.187Z,183.20
2022-11-05T17:35:42.575Z,199.40
2022-11-05T17:38:10.171Z,180.90
2022-11-05T17:40:37.337Z,183.60
2022-11-05T17:43:04.370Z,174.80
2022-11-05T17:48:05.531Z,180.90
2022-11-05T17:50:32.893Z,176.50
2022-11-05T17:52:59.932Z,211.50
2022-11-05T17:55:27.085Z,182.90
2022-11-05T17:57:54.439Z,183.50
2022-11-05T18:07:52.060Z,179.00
2022-11-05T18:10:19.517Z,194.60
2022-11-05T18:12:47.574Z,185.20
2022-11-05T18:15:15.233Z,197.90
2022-11-05T18:17:42.282Z,204.60
2022-11-05T18:20:17.363Z,187.60
2022-11-05T18:22:46.410Z,189.30
2022-11-05T18:25:14.289Z,209.90
2022-11-05T18:27:44.822Z,224.10
2022-11-05T18:30:16.976Z,212.70
2022-11-05T18:32:44.943Z,240.70
2022-11-05T18:35:13.529Z,266.50
2022-11-05T18:37:40.675Z,245.00
2022-11-05T18:40:08.336Z,249.70
2022-11-05T18:42:35.382Z,244.40
2022-11-05T18:45:02.337Z,269.00
2022-11-05T18:47:34.240Z,273.60
2022-11-05T18:50:06.454Z,298.90
2022-11-05T18:52:34.020Z,307.20
2022-11-05T18:55:01.168Z,311.30
2022-11-05T18:57:31.285Z,288.00
2022-11-05T19:00:00.797Z,288.80
2022-11-05T19:02:30.900Z,267.40
2022-11-05T19:05:27.578Z,286.00
2022-11-05T19:07:45.189Z,272.30
2022-11-05T19:10:15.601Z,274.20
2022-11-05T19:12:43.208Z,249.30
2022-11-05T19:15:13.753Z,248.00
2022-11-05T19:17:40.941Z,237.20
2022-11-05T19:20:09.729Z,222.90
2022-11-05T19:22:36.880Z,227.70
2022-11-05T19:25:05.035Z,228.80
2022-11-05T19:27:34.350Z,220.70
2022-11-05T19:30:01.395Z,228.30
2022-11-05T19:32:28.418Z,216.80
2022-11-05T19:34:55.464Z,227.10
2022-11-05T19:37:22.893Z,224.40
2022-11-05T19:39:52.892Z,223.90
2022-11-05T19:42:25.268Z,208.20
2022-11-05T19:45:44.606Z,191.40
2022-11-05T19:48:19.368Z,190.90
2022-11-05T19:50:46.957Z,203.70
2022-11-05T19:53:14.001Z,207.70
2022-11-05T19:55:41.453Z,218.30
2022-11-05T19:58:09.170Z,240.90
2022-11-05T20:00:39.543Z,258.80
2022-11-05T20:03:06.580Z,256.00
2022-11-05T20:05:36.232Z,302.10
2022-11-05T20:26:22.406Z,191.10
2022-11-05T20:28:49.488Z,183.10
2022-11-05T20:31:17.331Z,191.80
2022-11-05T20:33:45.416Z,192.40
2022-11-05T20:36:19.418Z,181.90
2022-11-05T20:38:48.271Z,198.20
2022-11-05T20:41:15.646Z,190.70
2022-11-05T20:43:43.029Z,209.10
2022-11-05T20:46:14.112Z,201.40
2022-11-05T20:48:45.081Z,197.10
2022-11-05T20:51:14.193Z,227.80
2022-11-05T20:53:43.337Z,201.00
2022-11-05T20:56:22.223Z,189.10
2022-11-05T20:58:50.477Z,195.20
2022-11-05T21:01:17.822Z,196.60
2022-11-05T21:03:47.340Z,205.00
2022-11-05T21:06:14.925Z,216.30
2022-11-05T21:08:57.004Z,231.70
2022-11-05T21:11:49.535Z,230.30
2022-11-05T21:14:19.755Z,219.40
2022-11-05T21:16:46.803Z,222.90
2022-11-05T21:19:15.386Z,227.50
2022-11-05T21:21:42.468Z,255.00
2022-11-05T21:24:09.592Z,295.50
2022-11-05T21:26:37.038Z,243.80
2022-11-05T21:29:04.187Z,201.20
2022-11-05T21:31:37.479Z,183.80
2022-11-05T21:34:04.732Z,200.30
2022-11-05T21:36:33.120Z,188.20
2022-11-05T21:39:00.360Z,186.00
2022-11-05T21:41:30.392Z,177.10
2022-11-05T21:43:57.670Z,165.30
2022-11-05T21:46:24.587Z,171.30
2022-11-05T21:48:51.949Z,164.00
2022-11-05T21:51:39.562Z,158.40
2022-11-05T21:54:25.307Z,154.30
2022-11-05T21:57:11.474Z,155.00
2022-11-05T21:59:48.263Z,168.20
2022-11-05T22:02:23.151Z,182.30
2022-11-05T22:04:52.400Z,181.60
2022-11-05T22:07:23.953Z,172.20
2022-11-05T22:09:50.948Z,172.00
2022-11-05T22:12:19.634Z,179.40
2022-11-05T22:14:46.710Z,201.10
2022-11-05T22:17:15.063Z,206.00
2022-11-05T22:19:41.970Z,207.80
2022-11-05T22:22:09.660Z,209.20
2022-11-05T22:24:39.106Z,215.80
2022-11-05T22:27:10.688Z,218.90
2022-11-05T22:29:37.669Z,209.70
2022-11-05T22:32:04.977Z,208.50
2022-11-05T22:34:31.868Z,207.00
2022-11-05T22:36:59.338Z,214.90
2022-11-05T22:39:26.329Z,204.00
2022-11-05T22:41:55.407Z,202.40
2022-11-05T22:44:23.526Z,204.20
2022-11-05T22:46:50.496Z,178.60
2022-11-05T22:49:17.519Z,163.70
2022-11-05T22:51:49.274Z,163.10
2022-11-05T22:54:17.078Z,148.70
2022-11-05T22:56:44.701Z,146.70
2022-11-05T22:59:13.706Z,148.20
2022-11-05T23:01:41.441Z,126.80
2022-11-05T23:04:08.941Z,112.10
2022-11-05T23:06:55.951Z,114.30
2022-11-05T23:09:50.113Z,109.00
2022-11-05T23:12:27.812Z,104.00
2022-11-05T23:14:58.046Z,106.70
2022-11-05T23:17:47.218Z,100.50
2022-11-05T23:20:36.156Z,100.00
2022-11-05T23:23:27.782Z,104.40
2022-11-05T23:25:58.718Z,96.40
2022-11-05T23:28:25.765Z,100.70
2022-11-05T23:31:26.091Z,98.90
2022-11-05T23:39:59.632Z,96.50
2022-11-05T23:42:45.726Z,89.00
2022-11-05T23:45:41.955Z,85.80
2022-11-05T23:48:17.241Z,73.70
2022-11-05T23:50:56.138Z,57.50
2022-11-05T23:53:23.475Z,61.60
2022-11-05T23:55:50.637Z,70.20
2022-11-05T23:58:17.978Z,67.40
